createdAt,value
2023-01-21T00:01:10.819Z,1.90
2023-01-21T00:03:38.483Z,1.90
2023-01-21T00:06:06.516Z,1.90
2023-01-21T00:08:34.749Z,1.90
2023-01-21T00:11:09.980Z,2.00
2023-01-21T00:13:37.448Z,2.00
2023-01-21T00:16:05.274Z,2.00
2023-01-21T00:18:33.669Z,2.00
2023-01-21T00:21:01.037Z,2.00
2023-01-21T00:23:28.700Z,2.00
2023-01-21T00:26:00.499Z,2.00
2023-01-21T00:28:29.566Z,2.00
2023-01-21T00:31:01.272Z,2.00
2023-01-21T00:33:30.094Z,2.00
2023-01-21T00:36:08.807Z,2.00
2023-01-21T00:38:36.601Z,2.00
2023-01-21T00:41:06.219Z,2.50
2023-01-21T00:43:34.383Z,2.00
2023-01-21T00:46:01.577Z,2.00
2023-01-21T00:48:29.053Z,2.00
2023-01-21T00:51:00.536Z,2.00
2023-01-21T00:53:29.201Z,2.00
2023-01-21T00:56:04.222Z,2.00
2023-01-21T00:58:31.983Z,2.00
2023-01-21T01:01:04.751Z,2.00
2023-01-21T01:03:32.765Z,2.00
2023-01-21T01:06:11.562Z,2.00
2023-01-21T01:08:39.038Z,2.00
2023-01-21T01:11:06.372Z,2.00
2023-01-21T01:13:35.691Z,2.00
2023-01-21T01:16:03.568Z,2.00
2023-01-21T01:18:33.797Z,2.00
2023-01-21T01:21:01.824Z,2.00
2023-01-21T01:23:29.612Z,2.00
2023-01-21T01:26:05.824Z,2.00
2023-01-21T01:28:33.953Z,2.00
2023-01-21T01:31:03.890Z,2.00
2023-01-21T01:33:31.656Z,2.00
2023-01-21T01:36:03.089Z,2.00
2023-01-21T01:38:30.966Z,2.00
2023-01-21T01:40:58.058Z,2.00
2023-01-21T01:44:00.636Z,2.00
2023-01-21T01:46:31.088Z,2.00
2023-01-21T01:49:16.992Z,2.00
2023-01-21T01:51:44.076Z,2.00
2023-01-21T01:54:14.941Z,2.00
2023-01-21T01:56:45.270Z,2.00
2023-01-21T01:59:13.077Z,2.00
2023-01-21T02:01:40.186Z,2.00
2023-01-21T02:04:13.359Z,2.10
2023-01-21T02:06:42.839Z,2.10
2023-01-21T02:09:10.128Z,2.10
2023-01-21T02:11:37.429Z,2.10
2023-01-21T02:14:05.794Z,2.10
2023-01-21T02:16:47.441Z,2.10
2023-01-21T02:19:17.943Z,2.10
2023-01-21T02:22:03.964Z,2.10
2023-01-21T02:24:50.069Z,2.10
2023-01-21T02:27:30.188Z,2.10
2023-01-21T02:30:10.384Z,2.10
2023-01-21T02:33:11.218Z,2.10
2023-01-21T02:36:12.133Z,2.00
2023-01-21T02:38:47.867Z,2.00
2023-01-21T02:41:34.225Z,1.90
2023-01-21T02:44:17.442Z,1.90
2023-01-21T02:46:47.202Z,1.90
2023-01-21T02:49:38.324Z,1.90
2023-01-21T02:52:05.941Z,1.90
2023-01-21T02:54:38.871Z,1.80
2023-01-21T02:57:16.999Z,1.80
2023-01-21T02:59:49.837Z,1.70
2023-01-21T03:02:32.217Z,1.60
2023-01-21T03:05:19.925Z,1.50
2023-01-21T03:07:53.237Z,1.40
2023-01-21T03:10:43.410Z,1.30
2023-01-21T03:13:42.021Z,1.30
2023-01-21T03:16:32.080Z,1.20
2023-01-21T03:19:05.749Z,1.10
2023-01-21T03:21:35.387Z,1.10
2023-01-21T03:24:03.062Z,1.00
2023-01-21T03:26:35.352Z,1.00
2023-01-21T03:29:09.514Z,1.00
2023-01-21T03:31:40.082Z,1.00
2023-01-21T03:34:10.469Z,1.00
2023-01-21T03:36:37.547Z,1.00
2023-01-21T03:39:16.052Z,0.90
2023-01-21T03:41:43.231Z,1.00
2023-01-21T03:44:10.877Z,0.90
2023-01-21T03:47:00.738Z,0.90
2023-01-21T03:49:30.945Z,1.00
2023-01-21T03:52:00.854Z,0.90
2023-01-21T03:54:28.328Z,0.90
2023-01-21T03:56:55.329Z,0.90
2023-01-21T03:59:22.928Z,0.90
2023-01-21T04:01:50.027Z,0.90
2023-01-21T04:04:17.406Z,0.90
2023-01-21T04:06:44.398Z,0.90
2023-01-21T04:09:12.006Z,0.90
2023-01-21T04:11:39.060Z,0.90
2023-01-21T04:14:06.797Z,0.90
2023-01-21T04:16:33.930Z,0.90
2023-01-21T04:19:01.321Z,0.90
2023-01-21T04:21:28.355Z,0.90
2023-01-21T04:23:55.769Z,0.90
2023-01-21T04:26:22.880Z,0.90
2023-01-21T04:28:50.253Z,0.90
2023-01-21T04:31:17.378Z,0.90
2023-01-21T04:33:44.694Z,0.90
2023-01-21T04:36:11.805Z,0.90
2023-01-21T04:38:39.079Z,0.80
2023-01-21T04:41:06.271Z,0.90
2023-01-21T04:43:33.537Z,0.80
2023-01-21T04:46:00.634Z,0.80
2023-01-21T04:48:28.112Z,0.80
2023-01-21T04:50:55.246Z,0.90
2023-01-21T04:53:22.593Z,0.80
2023-01-21T04:55:52.449Z,0.90
2023-01-21T04:58:20.931Z,0.80
2023-01-21T05:00:48.241Z,0.80
2023-01-21T05:03:15.854Z,0.90
2023-01-21T05:05:42.901Z,0.90
2023-01-21T05:08:10.222Z,0.90
2023-01-21T05:10:37.312Z,0.80
2023-01-21T05:13:04.920Z,0.90
2023-01-21T05:15:32.724Z,0.80
2023-01-21T05:18:00.689Z,0.90
2023-01-21T05:20:27.708Z,0.80
2023-01-21T05:22:55.117Z,0.80
2023-01-21T05:25:22.119Z,0.80
2023-01-21T05:27:53.791Z,0.80
2023-01-21T05:30:21.594Z,0.80
2023-01-21T05:32:53.135Z,0.80
2023-01-21T05:35:22.248Z,0.80
2023-01-21T05:37:50.745Z,0.90
2023-01-21T05:40:18.602Z,0.80
2023-01-21T05:42:46.855Z,0.80
2023-01-21T05:45:14.303Z,0.80
2023-01-21T05:47:42.015Z,0.80
2023-01-21T05:50:10.006Z,0.80
2023-01-21T05:52:37.684Z,0.80
2023-01-21T05:55:05.117Z,0.80
2023-01-21T05:57:32.861Z,0.90
2023-01-21T06:00:00.016Z,0.80
2023-01-21T06:02:27.448Z,0.80
2023-01-21T06:04:54.568Z,0.80
2023-01-21T06:07:21.951Z,0.80
2023-01-21T06:09:48.982Z,0.90
2023-01-21T06:12:16.383Z,0.90
2023-01-21T06:14:43.373Z,0.80
2023-01-21T06:17:10.698Z,0.90
2023-01-21T06:19:37.823Z,0.90
2023-01-21T06:22:05.114Z,0.90
2023-01-21T06:24:35.242Z,0.90
2023-01-21T06:27:02.848Z,1.60
2023-01-21T06:29:29.838Z,0.90
2023-01-21T06:31:57.355Z,0.90
2023-01-21T06:34:24.409Z,0.90
2023-01-21T06:36:51.767Z,0.90
2023-01-21T06:39:19.167Z,0.90
2023-01-21T06:41:46.728Z,0.90
2023-01-21T06:44:13.708Z,0.90
2023-01-21T06:46:43.426Z,0.90
2023-01-21T06:49:12.975Z,0.90
2023-01-21T06:51:40.325Z,0.90
2023-01-21T06:54:07.373Z,0.90
2023-01-21T06:56:34.762Z,0.90
2023-01-21T06:59:01.896Z,0.90
2023-01-21T07:01:32.382Z,0.90
2023-01-21T07:04:01.335Z,1.00
2023-01-21T07:06:28.670Z,0.90
2023-01-21T07:08:55.731Z,0.90
2023-01-21T07:11:23.118Z,0.90
2023-01-21T07:13:50.141Z,1.20
2023-01-21T07:16:17.554Z,0.90
2023-01-21T07:18:44.652Z,0.90
2023-01-21T07:21:12.028Z,1.00
2023-01-21T07:23:39.062Z,1.00
2023-01-21T07:26:06.563Z,1.00
2023-01-21T07:28:34.119Z,2.70
2023-01-21T07:31:02.440Z,0.70
2023-01-21T07:33:29.956Z,1.00
2023-01-21T07:35:57.256Z,1.00
2023-01-21T07:38:24.333Z,1.00
2023-01-21T07:40:51.685Z,1.00
2023-01-21T07:43:18.745Z,1.00
2023-01-21T07:45:46.230Z,1.00
2023-01-21T07:48:13.319Z,1.00
2023-01-21T07:50:40.757Z,1.00
2023-01-21T07:53:07.912Z,1.00
2023-01-21T07:55:35.371Z,1.00
2023-01-21T07:58:02.352Z,1.00
2023-01-21T08:00:29.734Z,1.00
2023-01-21T08:02:57.771Z,1.00
2023-01-21T08:05:26.268Z,1.00
2023-01-21T08:07:58.236Z,1.00
2023-01-21T08:10:26.544Z,1.00
2023-01-21T08:12:53.594Z,1.00
2023-01-21T08:15:21.346Z,1.00
2023-01-21T08:17:48.885Z,1.00
2023-01-21T08:20:16.554Z,1.00
2023-01-21T08:22:43.624Z,1.00
2023-01-21T08:25:11.717Z,1.10
2023-01-21T08:27:38.981Z,1.10
2023-01-21T08:30:07.178Z,1.10
2023-01-21T08:32:34.241Z,1.10
2023-01-21T08:35:03.079Z,1.10
2023-01-21T08:37:30.120Z,1.10
2023-01-21T08:39:57.448Z,1.20
2023-01-21T08:42:24.539Z,1.10
2023-01-21T08:44:51.839Z,1.20
2023-01-21T08:47:18.912Z,1.20
2023-01-21T08:49:46.253Z,1.20
2023-01-21T08:52:13.524Z,1.20
2023-01-21T08:54:41.463Z,1.20
2023-01-21T08:57:08.579Z,1.30
2023-01-21T08:59:35.969Z,1.30
2023-01-21T09:02:02.993Z,1.30
2023-01-21T09:04:30.460Z,1.30
2023-01-21T09:06:57.596Z,1.30
2023-01-21T09:09:24.876Z,1.30
2023-01-21T09:11:52.773Z,1.30
2023-01-21T09:14:21.518Z,1.30
2023-01-21T09:16:49.582Z,1.40
2023-01-21T09:19:17.269Z,1.40
2023-01-21T09:21:44.429Z,1.40
2023-01-21T09:24:11.804Z,1.40
2023-01-21T09:26:44.107Z,1.40
2023-01-21T09:29:11.603Z,1.40
2023-01-21T09:31:38.799Z,1.40
2023-01-21T09:34:06.549Z,1.40
2023-01-21T09:36:34.921Z,1.40
2023-01-21T09:39:02.434Z,1.80
2023-01-21T09:41:37.487Z,1.50
2023-01-21T09:44:26.665Z,1.50
2023-01-21T09:47:06.115Z,1.50
2023-01-21T09:49:46.459Z,1.50
2023-01-21T09:52:29.108Z,1.50
2023-01-21T09:54:58.133Z,1.50
2023-01-21T09:57:34.334Z,1.50
2023-01-21T10:00:16.576Z,1.50
2023-01-21T10:02:57.766Z,1.50
2023-01-21T10:05:25.124Z,1.50
2023-01-21T10:08:08.991Z,1.50
2023-01-21T10:10:57.745Z,1.50
2023-01-21T10:13:45.907Z,1.60
2023-01-21T10:16:29.657Z,1.60
2023-01-21T10:18:58.521Z,1.60
2023-01-21T10:22:02.044Z,1.70
2023-01-21T10:24:51.336Z,1.70
2023-01-21T10:27:21.256Z,1.80
2023-01-21T10:29:59.316Z,1.80
2023-01-21T10:32:28.051Z,1.80
2023-01-21T10:34:57.204Z,1.80
2023-01-21T10:37:27.296Z,1.90
2023-01-21T10:39:58.083Z,1.80
2023-01-21T10:42:37.806Z,1.90
2023-01-21T10:45:13.627Z,1.90
2023-01-21T10:48:05.319Z,1.90
2023-01-21T10:50:38.185Z,1.90
2023-01-21T10:53:14.868Z,1.90
2023-01-21T10:56:07.327Z,1.90
2023-01-21T10:58:45.414Z,1.90
2023-01-21T11:01:22.062Z,1.90
2023-01-21T11:03:53.481Z,1.90
2023-01-21T11:06:23.030Z,2.00
2023-01-21T11:08:56.042Z,2.00
2023-01-21T11:11:30.398Z,2.00
2023-01-21T11:13:57.994Z,2.00
2023-01-21T11:16:51.276Z,2.00
2023-01-21T11:19:24.867Z,2.00
2023-01-21T11:22:27.423Z,2.00
2023-01-21T11:24:55.047Z,2.00
2023-01-21T11:27:37.970Z,2.00
2023-01-21T11:30:25.889Z,2.00
2023-01-21T11:32:54.407Z,2.00
2023-01-21T11:35:23.081Z,2.00
2023-01-21T11:37:50.602Z,2.00
2023-01-21T11:40:21.451Z,2.00
2023-01-21T11:42:54.515Z,2.00
2023-01-21T11:45:31.962Z,2.00
2023-01-21T11:48:00.537Z,2.00
2023-01-21T11:50:40.661Z,2.00
2023-01-21T11:53:13.736Z,2.10
2023-01-21T11:55:54.271Z,2.10
2023-01-21T11:58:38.128Z,2.00
2023-01-21T12:01:08.691Z,2.00
2023-01-21T12:03:42.770Z,2.00
2023-01-21T12:06:17.137Z,2.00
2023-01-21T12:08:49.667Z,2.10
2023-01-21T12:11:23.148Z,2.10
2023-01-21T12:14:08.740Z,2.10
2023-01-21T12:16:55.038Z,2.10
2023-01-21T12:19:36.235Z,2.10
2023-01-21T12:22:30.929Z,2.10
2023-01-21T12:25:22.839Z,2.10
2023-01-21T12:28:34.521Z,2.10
2023-01-21T12:31:32.673Z,2.20
2023-01-21T12:34:08.991Z,2.10
2023-01-21T12:36:49.366Z,2.10
2023-01-21T12:39:33.616Z,2.10
2023-01-21T12:42:12.223Z,2.10
2023-01-21T12:44:45.965Z,2.20
2023-01-21T12:47:25.650Z,2.20
2023-01-21T12:50:17.674Z,2.20
2023-01-21T12:53:09.435Z,2.20
2023-01-21T12:55:45.392Z,2.20
2023-01-21T12:58:15.906Z,2.20
2023-01-21T13:00:47.679Z,2.20
2023-01-21T13:03:32.903Z,2.20
2023-01-21T13:06:17.278Z,2.20
2023-01-21T13:09:14.004Z,2.20
2023-01-21T13:11:58.361Z,2.30
2023-01-21T13:14:40.373Z,2.20
2023-01-21T13:17:16.358Z,2.20
2023-01-21T13:19:43.474Z,2.20
2023-01-21T13:22:43.008Z,2.20
2023-01-21T13:25:37.626Z,2.20
2023-01-21T13:28:07.858Z,2.20
2023-01-21T13:30:56.425Z,2.20
2023-01-21T13:33:42.168Z,2.20
2023-01-21T13:36:26.460Z,2.20
2023-01-21T13:39:05.410Z,2.20
2023-01-21T13:41:57.482Z,2.20
2023-01-21T13:44:40.087Z,2.20
2023-01-21T13:47:22.237Z,2.20
2023-01-21T13:50:01.656Z,2.20
2023-01-21T13:52:43.700Z,2.20
2023-01-21T13:55:32.002Z,2.20
2023-01-21T13:58:08.629Z,2.20
2023-01-21T14:00:39.053Z,2.20
2023-01-21T14:03:24.840Z,2.20
2023-01-21T14:05:56.585Z,2.20
2023-01-21T14:08:43.425Z,2.20
2023-01-21T14:11:31.342Z,2.20
2023-01-21T14:14:16.641Z,2.20
2023-01-21T14:17:32.338Z,2.20
2023-01-21T14:20:28.262Z,2.20
2023-01-21T14:23:22.452Z,2.30
2023-01-21T14:26:08.612Z,2.20
2023-01-21T14:29:17.256Z,2.20
2023-01-21T14:32:04.907Z,2.20
2023-01-21T14:34:39.879Z,2.20
2023-01-21T14:37:15.791Z,2.20
2023-01-21T14:40:01.720Z,2.20
2023-01-21T14:42:49.132Z,2.20
2023-01-21T14:45:27.383Z,2.20
2023-01-21T14:47:58.378Z,2.20
2023-01-21T14:50:50.821Z,2.20
2023-01-21T14:53:26.346Z,2.20
2023-01-21T14:56:22.377Z,2.20
2023-01-21T14:58:54.423Z,2.20
2023-01-21T15:01:46.049Z,2.20
2023-01-21T15:04:29.420Z,2.30
2023-01-21T15:07:00.650Z,2.30
2023-01-21T15:09:32.687Z,2.20
2023-01-21T15:12:03.291Z,2.30
2023-01-21T15:14:39.848Z,2.30
2023-01-21T15:17:47.205Z,2.30
2023-01-21T15:20:44.049Z,2.30
2023-01-21T15:23:17.253Z,2.30
2023-01-21T15:26:09.081Z,2.30
2023-01-21T15:28:46.476Z,2.30
2023-01-21T15:31:41.220Z,3.30
2023-01-21T15:34:15.721Z,2.30
2023-01-21T15:36:50.417Z,2.30
2023-01-21T15:39:27.518Z,2.30
2023-01-21T15:42:19.213Z,3.10
2023-01-21T15:44:58.040Z,2.30
2023-01-21T15:47:41.155Z,2.30
2023-01-21T15:50:20.641Z,2.30
2023-01-21T15:53:26.695Z,2.30
2023-01-21T15:56:18.163Z,2.30
2023-01-21T15:59:05.429Z,2.30
2023-01-21T16:01:37.965Z,2.30
2023-01-21T16:04:32.703Z,2.30
2023-01-21T16:07:24.971Z,2.30
2023-01-21T16:10:16.447Z,2.30
2023-01-21T16:12:46.824Z,2.30
2023-01-21T16:15:44.354Z,2.30
2023-01-21T16:18:21.397Z,2.30
2023-01-21T16:20:53.304Z,2.30
2023-01-21T16:23:24.622Z,2.30
2023-01-21T16:25:53.000Z,2.30
2023-01-21T16:28:21.337Z,2.30
2023-01-21T16:30:54.990Z,2.20
2023-01-21T16:33:24.037Z,2.30
2023-01-21T16:35:54.493Z,2.30
2023-01-21T16:38:27.544Z,2.30
2023-01-21T16:41:06.555Z,2.30
2023-01-21T16:43:36.616Z,2.30
2023-01-21T16:46:14.764Z,2.30
2023-01-21T16:48:42.601Z,2.30
2023-01-21T16:51:23.799Z,2.30
2023-01-21T16:54:14.586Z,2.30
2023-01-21T16:56:49.237Z,2.30
2023-01-21T16:59:30.129Z,2.30
2023-01-21T17:01:59.162Z,2.30
2023-01-21T17:04:28.512Z,2.30
2023-01-21T17:06:55.746Z,2.30
2023-01-21T17:09:33.803Z,2.30
2023-01-21T17:12:08.491Z,2.40
2023-01-21T17:14:37.220Z,2.30
2023-01-21T17:17:08.325Z,2.30
2023-01-21T17:19:42.952Z,2.30
2023-01-21T17:22:19.895Z,2.30
2023-01-21T17:25:00.512Z,2.40
2023-01-21T17:27:28.130Z,2.40
2023-01-21T17:30:31.977Z,2.30
2023-01-21T17:33:01.721Z,2.40
2023-01-21T17:35:32.017Z,2.40
2023-01-21T17:38:05.728Z,2.30
2023-01-21T17:41:03.698Z,2.40
2023-01-21T17:43:32.342Z,2.30
2023-01-21T17:46:00.494Z,2.30
2023-01-21T17:48:28.229Z,2.30
2023-01-21T17:51:03.274Z,2.30
2023-01-21T17:53:31.171Z,2.30
2023-01-21T17:56:00.570Z,2.30
2023-01-21T17:58:46.067Z,2.40
2023-01-21T18:01:13.935Z,2.40
2023-01-21T18:03:41.281Z,2.30
2023-01-21T18:06:24.322Z,3.80
2023-01-21T18:08:52.813Z,2.30
2023-01-21T18:11:21.382Z,2.30
2023-01-21T18:13:48.728Z,2.30
2023-01-21T18:16:16.261Z,2.30
2023-01-21T18:18:43.515Z,2.30
2023-01-21T18:21:19.732Z,2.30
2023-01-21T18:23:48.113Z,2.30
2023-01-21T18:26:38.231Z,2.30
2023-01-21T18:29:05.433Z,2.30
2023-01-21T18:31:32.819Z,2.80
2023-01-21T18:33:59.932Z,2.30
2023-01-21T18:36:27.588Z,2.30
2023-01-21T18:38:54.655Z,2.30
2023-01-21T18:41:22.034Z,2.30
2023-01-21T18:43:49.064Z,2.30
2023-01-21T18:46:16.610Z,2.30
2023-01-21T18:48:43.864Z,2.30
2023-01-21T18:51:13.394Z,2.30
2023-01-21T18:53:40.546Z,2.30
2023-01-21T18:56:12.520Z,2.30
2023-01-21T18:58:39.609Z,2.30
2023-01-21T19:01:21.427Z,2.30
2023-01-21T19:03:52.363Z,2.30
2023-01-21T19:06:19.928Z,2.30
2023-01-21T19:08:48.723Z,2.30
2023-01-21T19:11:16.801Z,2.30
2023-01-21T19:13:43.918Z,2.30
2023-01-21T19:16:17.196Z,2.30
2023-01-21T19:18:44.820Z,2.30
2023-01-21T19:21:12.492Z,2.30
2023-01-21T19:23:40.426Z,2.30
2023-01-21T19:26:09.891Z,2.30
2023-01-21T19:28:37.357Z,2.30
2023-01-21T19:31:04.940Z,2.30
2023-01-21T19:33:32.078Z,2.30
2023-01-21T19:36:06.549Z,2.40
2023-01-21T19:38:33.575Z,2.40
2023-01-21T19:41:00.862Z,2.30
2023-01-21T19:43:28.170Z,2.40
2023-01-21T19:45:58.131Z,2.40
2023-01-21T19:48:27.502Z,2.40
2023-01-21T19:50:54.854Z,2.40
2023-01-21T19:53:23.258Z,2.50
2023-01-21T19:55:51.083Z,2.40
2023-01-21T19:58:21.117Z,2.40
2023-01-21T20:00:51.067Z,2.40
2023-01-21T20:03:19.526Z,2.40
2023-01-21T20:05:49.729Z,2.40
2023-01-21T20:08:24.262Z,2.40
2023-01-21T20:10:52.059Z,2.40
2023-01-21T20:13:19.204Z,2.40
2023-01-21T20:15:49.185Z,2.40
2023-01-21T20:18:28.080Z,2.40
2023-01-21T20:20:56.222Z,2.40
2023-01-21T20:23:25.211Z,2.40
2023-01-21T20:25:56.724Z,2.40
2023-01-21T20:28:26.623Z,2.40
2023-01-21T20:30:54.855Z,2.50
2023-01-21T20:33:23.985Z,2.50
2023-01-21T20:35:53.341Z,2.50
2023-01-21T20:38:26.619Z,2.40
2023-01-21T20:40:54.123Z,2.50
2023-01-21T20:43:21.284Z,2.40
2023-01-21T20:45:49.379Z,2.40
2023-01-21T20:48:25.192Z,2.40
2023-01-21T20:50:53.222Z,2.40
2023-01-21T20:53:20.694Z,2.50
2023-01-21T20:55:51.345Z,2.50
2023-01-21T20:58:21.899Z,2.40
2023-01-21T21:00:50.225Z,2.40
2023-01-21T21:03:18.444Z,2.40
2023-01-21T21:05:47.239Z,2.40
2023-01-21T21:08:16.272Z,2.40
2023-01-21T21:10:44.114Z,2.40
2023-01-21T21:13:12.337Z,2.40
2023-01-21T21:15:41.614Z,2.50
2023-01-21T21:18:13.917Z,2.50
2023-01-21T21:20:41.969Z,2.50
2023-01-21T21:23:14.139Z,2.40
2023-01-21T21:25:47.263Z,2.40
2023-01-21T21:28:16.993Z,2.50
2023-01-21T21:30:45.040Z,2.50
2023-01-21T21:33:20.387Z,2.50
2023-01-21T21:35:48.426Z,2.50
2023-01-21T21:38:18.152Z,2.40
2023-01-21T21:40:47.327Z,2.50
2023-01-21T21:43:38.801Z,2.60
2023-01-21T21:46:28.918Z,2.50
2023-01-21T21:48:56.113Z,2.50
2023-01-21T21:51:24.139Z,2.50
2023-01-21T21:53:51.718Z,2.50
2023-01-21T21:56:21.846Z,2.50
2023-01-21T21:58:49.906Z,2.50
2023-01-21T22:01:23.273Z,2.40
2023-01-21T22:03:51.368Z,2.40
2023-01-21T22:06:22.508Z,2.40
2023-01-21T22:08:49.685Z,2.40
2023-01-21T22:11:19.120Z,2.40
2023-01-21T22:13:50.090Z,2.40
2023-01-21T22:16:23.689Z,2.30
2023-01-21T22:18:51.552Z,2.30
2023-01-21T22:21:28.380Z,2.30
2023-01-21T22:23:55.847Z,2.30
2023-01-21T22:26:25.510Z,2.30
2023-01-21T22:28:53.191Z,2.30
2023-01-21T22:31:25.533Z,2.30
2023-01-21T22:33:53.411Z,2.30
2023-01-21T22:36:22.944Z,2.40
2023-01-21T22:38:51.261Z,2.40
2023-01-21T22:41:21.343Z,2.50
2023-01-21T22:43:49.492Z,2.40
2023-01-21T22:46:25.934Z,2.40
2023-01-21T22:48:54.553Z,2.40
2023-01-21T22:51:23.155Z,2.40
2023-01-21T22:53:51.488Z,2.40
2023-01-21T22:56:25.367Z,2.40
2023-01-21T22:58:58.820Z,2.40
2023-01-21T23:01:31.055Z,2.40
2023-01-21T23:03:59.151Z,2.40
2023-01-21T23:06:26.864Z,2.40
2023-01-21T23:08:54.079Z,2.40
2023-01-21T23:11:21.898Z,2.30
2023-01-21T23:13:49.677Z,2.40
2023-01-21T23:16:19.156Z,2.30
2023-01-21T23:18:46.804Z,2.30
2023-01-21T23:21:20.930Z,2.40
2023-01-21T23:23:48.576Z,2.30
2023-01-21T23:26:18.321Z,2.30
2023-01-21T23:28:45.706Z,2.30
2023-01-21T23:31:15.705Z,2.30
2023-01-21T23:33:43.135Z,2.30
2023-01-21T23:36:13.790Z,2.30
2023-01-21T23:38:41.707Z,2.30
2023-01-21T23:41:11.475Z,2.30
2023-01-21T23:43:38.625Z,2.30
2023-01-21T23:46:07.891Z,2.30
2023-01-21T23:48:35.065Z,2.30
2023-01-21T23:51:10.845Z,2.50
2023-01-21T23:53:38.014Z,2.20
2023-01-21T23:56:10.508Z,2.20
2023-01-21T23:58:37.528Z,2.20
